»·PEaware :: SWA962 KLAS-KSAN

SWA962 :: KLAS-KSAN

FLIGHT INFORMATION

Flight Status: Arrived
Operator:
Southwest Airlines
More flights by this operator :: More flights under this callsign
Pilot: Cody B. (17747)
Aircraft: BOEING 737-800
(B738)
More flights by this aircraft type
Origin: KLAS McCarran Intl
United States
Destination: KSAN San Diego Intl-Lindbergh
United States
More flights between these airports :: More routes between these airports
Route: +BOACH8 LVELL LUCKI1
File this flight plan on PilotEdge
Remarks: RMK / SIMBRIEF
Altitude:
(Current/Filed)
30,000ft
Speed:
(Current/Filed)
439kts
Departed: 17-Apr-19 03:04 PM
Arrived: 17-Apr-19 03:48 PM
Distance/Time
Traveled:
225nm/0:44
Distance/Time
To Go:
Arrived

Flight Plot

Page will automatically refresh every two minutes.

Flight plan parsing failed; only flown route is shown


Map Options




Map Legend


Flown Route
Filed Route
Departure Airport
Arrival Airport
Navaid (VOR, NDB)
Fix

Horizontal Profiles

Position Reports

Time Latitude Longitude Heading Altitude Ground
Speed
17-Apr-19 14:04 36.080303 -115.147290 59 2096ft 0kts
17-Apr-19 14:05 36.080303 -115.147290 59 2096ft 0kts
17-Apr-19 14:06 36.080303 -115.147290 59 2096ft 0kts
17-Apr-19 14:07 36.080303 -115.147290 59 2096ft 0kts
17-Apr-19 14:08 36.080303 -115.147290 59 2096ft 0kts
17-Apr-19 14:09 36.080303 -115.147290 59 2096ft 0kts
17-Apr-19 14:10 36.080303 -115.147290 59 2096ft 0kts
17-Apr-19 14:11 36.080303 -115.147290 59 2096ft 0kts
17-Apr-19 14:12 36.080303 -115.147290 59 2096ft 0kts
17-Apr-19 14:13 36.080303 -115.147290 59 2096ft 0kts
17-Apr-19 14:14 36.080303 -115.147290 59 2096ft 0kts
17-Apr-19 14:15 36.080303 -115.147290 59 2096ft 0kts
17-Apr-19 14:16 36.080303 -115.147290 59 2096ft 0kts
17-Apr-19 14:17 36.080303 -115.147290 59 2096ft 0kts
17-Apr-19 14:18 36.080303 -115.147290 59 2096ft 0kts
17-Apr-19 14:19 36.080303 -115.147290 59 2096ft 0kts
17-Apr-19 14:20 36.080303 -115.147290 59 2096ft 0kts
17-Apr-19 14:21 36.080303 -115.147290 59 2096ft 0kts
17-Apr-19 14:22 36.080303 -115.147290 59 2096ft 0kts
17-Apr-19 14:23 36.080303 -115.147290 59 2096ft 0kts
17-Apr-19 14:24 36.080303 -115.147290 59 2096ft 0kts
17-Apr-19 14:25 36.080303 -115.147290 59 2096ft 0kts
17-Apr-19 14:26 36.080303 -115.147290 59 2096ft 0kts
17-Apr-19 14:27 36.080303 -115.147290 59 2096ft 0kts
17-Apr-19 14:28 36.080303 -115.147290 59 2096ft 0kts
17-Apr-19 14:29 36.080303 -115.147290 59 2096ft 0kts
17-Apr-19 14:30 36.080303 -115.147290 59 2096ft 0kts
17-Apr-19 14:31 36.080303 -115.147290 59 2096ft 0kts
17-Apr-19 14:32 36.080303 -115.147290 59 2096ft 0kts
17-Apr-19 14:33 36.080303 -115.147290 59 2096ft 0kts
17-Apr-19 14:34 36.080303 -115.147290 59 2096ft 0kts
17-Apr-19 14:35 36.080303 -115.147290 59 2096ft 0kts
17-Apr-19 14:36 36.080303 -115.147290 59 2096ft 0kts
17-Apr-19 14:38 36.080303 -115.147290 59 2096ft 0kts
17-Apr-19 14:39 36.080303 -115.147290 59 2096ft 0kts
17-Apr-19 14:40 36.080303 -115.147290 59 2096ft 0kts
17-Apr-19 14:41 36.080303 -115.147290 59 2096ft 0kts
17-Apr-19 14:42 36.080303 -115.147290 59 2096ft 0kts
17-Apr-19 14:43 36.080303 -115.147290 59 2096ft 0kts
17-Apr-19 14:44 36.080303 -115.147290 59 2096ft 0kts
17-Apr-19 14:45 36.080303 -115.147290 59 2096ft 0kts
17-Apr-19 14:46 36.080303 -115.147290 59 2096ft 0kts
17-Apr-19 14:47 36.080303 -115.147290 59 2096ft 0kts
17-Apr-19 14:48 36.080156 -115.147673 61 2098ft 2kts
17-Apr-19 14:49 36.079866 -115.148307 60 2101ft 2kts
17-Apr-19 14:50 36.079931 -115.148651 155 2102ft 0kts
17-Apr-19 14:51 36.079931 -115.148650 155 2102ft 0kts
17-Apr-19 14:52 36.079931 -115.148650 155 2102ft 0kts
17-Apr-19 14:53 36.079725 -115.148535 155 2102ft 3kts
17-Apr-19 14:54 36.079119 -115.148209 163 2102ft 0kts
17-Apr-19 14:55 36.079047 -115.148183 163 2102ft 0kts
17-Apr-19 14:56 36.078432 -115.148121 191 2103ft 6kts
17-Apr-19 14:56 36.077951 -115.149909 274 2111ft 8kts
17-Apr-19 14:57 36.078033 -115.153594 269 2125ft 12kts
17-Apr-19 14:59 36.078022 -115.159829 269 2147ft 19kts
17-Apr-19 15:00 36.077605 -115.163318 212 2161ft 3kts
17-Apr-19 15:00 36.077458 -115.163413 206 2162ft 0kts
17-Apr-19 15:01 36.076449 -115.163991 203 2165ft 11kts
17-Apr-19 15:02 36.074138 -115.165336 214 2175ft 9kts
17-Apr-19 15:04 36.077549 -115.165608 24 2167ft 56kts
17-Apr-19 15:05 36.111652 -115.159316 312 3645ft 152kts
17-Apr-19 15:05 36.114102 -115.212145 267 4849ft 225kts
17-Apr-19 15:06 36.079417 -115.287578 219 7267ft 288kts
17-Apr-19 15:07 36.007686 -115.337003 203 10326ft 309kts
17-Apr-19 15:08 35.918427 -115.372492 185 12576ft 354kts
17-Apr-19 15:09 35.820449 -115.350464 161 15485ft 371kts
17-Apr-19 15:10 35.720302 -115.311037 163 18227ft 389kts
17-Apr-19 15:11 35.611277 -115.296763 185 20701ft 404kts
17-Apr-19 15:12 35.496872 -115.301871 184 22942ft 422kts
17-Apr-19 15:13 35.378602 -115.306495 184 23192ft 424kts
17-Apr-19 15:14 35.259769 -115.311164 185 24564ft 434kts
17-Apr-19 15:15 35.136609 -115.316001 185 26454ft 450kts
17-Apr-19 15:16 35.009605 -115.320984 185 28253ft 464kts
17-Apr-19 15:17 34.879078 -115.326105 186 29895ft 476kts
17-Apr-19 15:18 34.746067 -115.350912 199 30087ft 491kts
17-Apr-19 15:19 34.617080 -115.402347 205 30087ft 486kts
17-Apr-19 15:20 34.489864 -115.457956 205 30176ft 486kts
17-Apr-19 15:21 34.362962 -115.514136 209 30221ft 483kts
17-Apr-19 15:22 34.244960 -115.588766 216 30218ft 477kts
17-Apr-19 15:23 34.123565 -115.655993 207 30224ft 485kts
17-Apr-19 15:24 34.005769 -115.711316 207 30227ft 484kts
17-Apr-19 15:25 33.882185 -115.770076 208 29718ft 469kts
17-Apr-19 15:26 33.761811 -115.829310 207 28699ft 463kts
17-Apr-19 15:27 33.642394 -115.884955 207 27688ft 458kts
17-Apr-19 15:28 33.530323 -115.949691 223 26698ft 438kts
17-Apr-19 15:29 33.451516 -116.053086 241 24523ft 411kts
17-Apr-19 15:30 33.386184 -116.163407 236 21888ft 410kts
17-Apr-19 15:31 33.303715 -116.257773 221 19262ft 406kts
17-Apr-19 15:32 33.208995 -116.325130 210 16766ft 393kts
17-Apr-19 15:33 33.114980 -116.379999 209 14464ft 362kts
17-Apr-19 15:34 33.027951 -116.431005 209 12541ft 328kts
17-Apr-19 15:35 32.952162 -116.497721 224 10913ft 340kts
17-Apr-19 15:36 32.885949 -116.564741 223 10092ft 289kts
17-Apr-19 15:37 32.826046 -116.625181 223 9042ft 277kts
17-Apr-19 15:38 32.770190 -116.686033 239 7755ft 285kts
17-Apr-19 15:39 32.732176 -116.766010 244 6429ft 270kts
17-Apr-19 15:40 32.698959 -116.842844 254 5467ft 247kts
17-Apr-19 15:41 32.678274 -116.913284 254 4570ft 211kts
17-Apr-19 15:42 32.681152 -116.977179 289 3639ft 186kts
17-Apr-19 15:43 32.695803 -117.034278 286 2788ft 171kts
17-Apr-19 15:44 32.707815 -117.083763 286 2027ft 138kts
17-Apr-19 15:45 32.718208 -117.128527 285 1267ft 139kts
17-Apr-19 15:46 32.729313 -117.172291 286 184ft 139kts
17-Apr-19 15:47 32.735312 -117.196922 280 17ft 23kts
17-Apr-19 15:48 32.734834 -117.198440 185 17ft 0kts
17-Apr-19 15:49 32.734687 -117.198358 133 17ft 3kts
17-Apr-19 15:50 32.733658 -117.194504 126 21ft 10kts
17-Apr-19 15:51 32.732042 -117.195295 270 20ft 7kts
17-Apr-19 15:52 32.732332 -117.195911 306 19ft 0kts
17-Apr-19 15:53 32.732332 -117.195911 306 19ft 0kts

Navigation Log

Ident Type
Flight plan parsing failed, navigation log unavailable